sensor_id;sensor_type;location;lat;lon;timestamp;P1;durP1;ratioP1;P2;durP2;ratioP2
34405;SDS011;20658;45.630;8.886;2022-09-09T00:00:53;23.55;;;11.50;;
34405;SDS011;20658;45.630;8.886;2022-09-09T00:03:35;24.42;;;11.15;;
34405;SDS011;20658;45.630;8.886;2022-09-09T00:06:19;22.50;;;11.63;;
34405;SDS011;20658;45.630;8.886;2022-09-09T00:09:00;21.58;;;10.75;;
34405;SDS011;20658;45.630;8.886;2022-09-09T00:11:40;18.63;;;10.98;;
34405;SDS011;20658;45.630;8.886;2022-09-09T00:14:20;23.23;;;12.20;;
34405;SDS011;20658;45.630;8.886;2022-09-09T00:17:03;24.27;;;12.32;;
34405;SDS011;20658;45.630;8.886;2022-09-09T00:19:43;22.35;;;12.40;;
34405;SDS011;20658;45.630;8.886;2022-09-09T00:22:20;19.67;;;10.57;;
34405;SDS011;20658;45.630;8.886;2022-09-09T00:24:57;19.60;;;10.88;;
34405;SDS011;20658;45.630;8.886;2022-09-09T00:27:44;21.25;;;12.68;;
34405;SDS011;20658;45.630;8.886;2022-09-09T00:30:22;22.38;;;12.65;;
34405;SDS011;20658;45.630;8.886;2022-09-09T00:32:58;22.33;;;11.23;;
34405;SDS011;20658;45.630;8.886;2022-09-09T00:35:36;19.13;;;11.63;;
34405;SDS011;20658;45.630;8.886;2022-09-09T00:38:13;21.98;;;12.52;;
34405;SDS011;20658;45.630;8.886;2022-09-09T00:40:50;25.45;;;13.25;;
34405;SDS011;20658;45.630;8.886;2022-09-09T00:43:28;25.85;;;12.20;;
34405;SDS011;20658;45.630;8.886;2022-09-09T00:49:15;20.23;;;13.75;;
34405;SDS011;20658;45.630;8.886;2022-09-09T00:52:03;23.38;;;13.00;;
34405;SDS011;20658;45.630;8.886;2022-09-09T00:54:53;24.73;;;13.18;;
34405;SDS011;20658;45.630;8.886;2022-09-09T00:57:37;19.42;;;12.40;;
34405;SDS011;20658;45.630;8.886;2022-09-09T01:00:21;22.13;;;12.82;;
34405;SDS011;20658;45.630;8.886;2022-09-09T01:03:02;20.00;;;12.63;;
34405;SDS011;20658;45.630;8.886;2022-09-09T01:06:00;22.20;;;12.00;;
34405;SDS011;20658;45.630;8.886;2022-09-09T01:11:51;24.70;;;13.48;;
34405;SDS011;20658;45.630;8.886;2022-09-09T01:14:38;22.83;;;13.15;;
34405;SDS011;20658;45.630;8.886;2022-09-09T01:17:17;19.80;;;13.40;;
34405;SDS011;20658;45.630;8.886;2022-09-09T01:20:09;19.70;;;13.15;;
34405;SDS011;20658;45.630;8.886;2022-09-09T01:22:56;27.52;;;14.48;;
34405;SDS011;20658;45.630;8.886;2022-09-09T01:26:25;23.95;;;14.35;;
34405;SDS011;20658;45.630;8.886;2022-09-09T01:29:06;26.63;;;16.05;;
34405;SDS011;20658;45.630;8.886;2022-09-09T01:31:52;22.85;;;13.48;;
34405;SDS011;20658;45.630;8.886;2022-09-09T01:34:29;23.75;;;15.27;;
34405;SDS011;20658;45.630;8.886;2022-09-09T01:37:08;27.45;;;14.02;;
34405;SDS011;20658;45.630;8.886;2022-09-09T01:39:44;26.85;;;16.88;;
34405;SDS011;20658;45.630;8.886;2022-09-09T01:42:19;27.80;;;16.70;;
34405;SDS011;20658;45.630;8.886;2022-09-09T01:44:52;32.00;;;17.00;;
34405;SDS011;20658;45.630;8.886;2022-09-09T01:47:26;30.35;;;17.10;;
34405;SDS011;20658;45.630;8.886;2022-09-09T01:50:07;26.98;;;17.50;;
34405;SDS011;20658;45.630;8.886;2022-09-09T01:52:43;27.80;;;20.05;;
34405;SDS011;20658;45.630;8.886;2022-09-09T01:55:23;28.15;;;18.33;;
34405;SDS011;20658;45.630;8.886;2022-09-09T01:58:11;29.48;;;19.63;;
34405;SDS011;20658;45.630;8.886;2022-09-09T02:01:00;31.48;;;18.60;;
34405;SDS011;20658;45.630;8.886;2022-09-09T02:03:40;33.20;;;20.52;;
34405;SDS011;20658;45.630;8.886;2022-09-09T02:06:24;27.60;;;17.98;;
34405;SDS011;20658;45.630;8.886;2022-09-09T02:09:17;27.25;;;18.17;;
34405;SDS011;20658;45.630;8.886;2022-09-09T02:11:57;27.55;;;17.33;;
34405;SDS011;20658;45.630;8.886;2022-09-09T02:14:48;31.77;;;19.42;;
34405;SDS011;20658;45.630;8.886;2022-09-09T02:17:40;29.33;;;18.58;;
34405;SDS011;20658;45.630;8.886;2022-09-09T02:20:15;31.45;;;19.52;;
34405;SDS011;20658;45.630;8.886;2022-09-09T02:22:54;26.17;;;18.75;;
34405;SDS011;20658;45.630;8.886;2022-09-09T02:25:29;25.60;;;18.05;;
34405;SDS011;20658;45.630;8.886;2022-09-09T02:28:10;33.88;;;19.30;;
34405;SDS011;20658;45.630;8.886;2022-09-09T02:30:48;30.23;;;19.02;;
34405;SDS011;20658;45.630;8.886;2022-09-09T02:33:26;29.50;;;19.17;;
34405;SDS011;20658;45.630;8.886;2022-09-09T02:36:05;31.25;;;18.92;;
34405;SDS011;20658;45.630;8.886;2022-09-09T02:38:42;32.33;;;20.90;;
34405;SDS011;20658;45.630;8.886;2022-09-09T02:41:17;34.90;;;21.63;;
34405;SDS011;20658;45.630;8.886;2022-09-09T02:43:49;43.67;;;24.90;;
34405;SDS011;20658;45.630;8.886;2022-09-09T02:46:27;32.38;;;22.27;;
34405;SDS011;20658;45.630;8.886;2022-09-09T02:49:13;31.40;;;23.02;;
34405;SDS011;20658;45.630;8.886;2022-09-09T02:51:56;32.30;;;22.92;;
34405;SDS011;20658;45.630;8.886;2022-09-09T02:54:37;32.92;;;23.02;;
34405;SDS011;20658;45.630;8.886;2022-09-09T02:57:13;30.55;;;20.85;;
34405;SDS011;20658;45.630;8.886;2022-09-09T02:59:48;30.55;;;21.70;;
34405;SDS011;20658;45.630;8.886;2022-09-09T03:02:19;30.58;;;20.52;;
34405;SDS011;20658;45.630;8.886;2022-09-09T03:04:53;27.70;;;19.35;;
34405;SDS011;20658;45.630;8.886;2022-09-09T03:07:21;28.80;;;19.90;;
34405;SDS011;20658;45.630;8.886;2022-09-09T03:09:51;30.80;;;22.75;;
34405;SDS011;20658;45.630;8.886;2022-09-09T03:12:23;37.88;;;23.92;;
34405;SDS011;20658;45.630;8.886;2022-09-09T03:14:57;33.30;;;23.25;;
34405;SDS011;20658;45.630;8.886;2022-09-09T03:17:27;33.58;;;20.95;;
34405;SDS011;20658;45.630;8.886;2022-09-09T03:19:56;35.97;;;23.65;;
34405;SDS011;20658;45.630;8.886;2022-09-09T03:22:25;31.52;;;19.70;;
34405;SDS011;20658;45.630;8.886;2022-09-09T03:24:59;29.98;;;22.20;;
34405;SDS011;20658;45.630;8.886;2022-09-09T03:27:29;33.78;;;21.73;;
34405;SDS011;20658;45.630;8.886;2022-09-09T03:29:58;31.33;;;20.00;;
34405;SDS011;20658;45.630;8.886;2022-09-09T03:32:30;30.88;;;23.45;;
34405;SDS011;20658;45.630;8.886;2022-09-09T03:34:59;36.45;;;25.70;;
34405;SDS011;20658;45.630;8.886;2022-09-09T03:37:28;37.45;;;25.50;;
34405;SDS011;20658;45.630;8.886;2022-09-09T03:39:56;33.30;;;23.55;;
34405;SDS011;20658;45.630;8.886;2022-09-09T03:42:26;33.25;;;24.67;;
34405;SDS011;20658;45.630;8.886;2022-09-09T03:44:56;32.83;;;24.52;;
34405;SDS011;20658;45.630;8.886;2022-09-09T03:47:32;33.72;;;24.70;;
34405;SDS011;20658;45.630;8.886;2022-09-09T03:50:04;32.25;;;25.17;;
34405;SDS011;20658;45.630;8.886;2022-09-09T03:52:44;30.02;;;23.48;;
34405;SDS011;20658;45.630;8.886;2022-09-09T03:55:20;32.00;;;23.15;;
34405;SDS011;20658;45.630;8.886;2022-09-09T03:57:49;29.98;;;23.85;;
34405;SDS011;20658;45.630;8.886;2022-09-09T04:00:23;35.08;;;25.83;;
34405;SDS011;20658;45.630;8.886;2022-09-09T04:02:53;30.13;;;22.67;;
34405;SDS011;20658;45.630;8.886;2022-09-09T04:05:28;29.10;;;21.42;;
34405;SDS011;20658;45.630;8.886;2022-09-09T04:07:57;33.70;;;22.88;;
34405;SDS011;20658;45.630;8.886;2022-09-09T04:10:31;30.77;;;21.77;;
34405;SDS011;20658;45.630;8.886;2022-09-09T04:12:59;30.77;;;23.02;;
34405;SDS011;20658;45.630;8.886;2022-09-09T04:15:32;34.03;;;25.55;;
34405;SDS011;20658;45.630;8.886;2022-09-09T04:18:02;35.88;;;23.73;;
34405;SDS011;20658;45.630;8.886;2022-09-09T04:20:37;30.60;;;24.20;;
34405;SDS011;20658;45.630;8.886;2022-09-09T04:23:10;30.50;;;23.77;;
34405;SDS011;20658;45.630;8.886;2022-09-09T04:25:45;36.90;;;25.88;;
34405;SDS011;20658;45.630;8.886;2022-09-09T04:28:20;35.67;;;25.52;;
34405;SDS011;20658;45.630;8.886;2022-09-09T04:30:55;25.70;;;16.83;;
34405;SDS011;20658;45.630;8.886;2022-09-09T04:33:31;24.90;;;16.83;;
34405;SDS011;20658;45.630;8.886;2022-09-09T04:36:04;28.90;;;19.02;;
34405;SDS011;20658;45.630;8.886;2022-09-09T04:38:33;24.80;;;16.45;;
34405;SDS011;20658;45.630;8.886;2022-09-09T04:41:06;21.55;;;13.93;;
34405;SDS011;20658;45.630;8.886;2022-09-09T04:43:44;21.38;;;14.68;;
34405;SDS011;20658;45.630;8.886;2022-09-09T04:46:17;18.92;;;11.35;;
34405;SDS011;20658;45.630;8.886;2022-09-09T04:48:52;18.52;;;9.93;;
34405;SDS011;20658;45.630;8.886;2022-09-09T04:51:29;15.48;;;7.65;;
34405;SDS011;20658;45.630;8.886;2022-09-09T04:54:03;12.75;;;6.60;;
34405;SDS011;20658;45.630;8.886;2022-09-09T04:56:32;17.88;;;6.35;;
34405;SDS011;20658;45.630;8.886;2022-09-09T04:59:00;11.27;;;6.03;;
34405;SDS011;20658;45.630;8.886;2022-09-09T05:01:55;8.98;;;5.82;;
34405;SDS011;20658;45.630;8.886;2022-09-09T05:04:30;11.98;;;6.00;;
34405;SDS011;20658;45.630;8.886;2022-09-09T05:06:59;10.00;;;5.43;;
34405;SDS011;20658;45.630;8.886;2022-09-09T05:09:27;10.23;;;5.25;;
34405;SDS011;20658;45.630;8.886;2022-09-09T05:12:01;10.93;;;5.45;;
34405;SDS011;20658;45.630;8.886;2022-09-09T05:14:34;8.05;;;4.50;;
34405;SDS011;20658;45.630;8.886;2022-09-09T05:17:10;10.30;;;4.90;;
34405;SDS011;20658;45.630;8.886;2022-09-09T05:19:45;10.93;;;5.43;;
34405;SDS011;20658;45.630;8.886;2022-09-09T05:22:19;8.00;;;4.45;;
34405;SDS011;20658;45.630;8.886;2022-09-09T05:27:19;12.15;;;3.83;;
34405;SDS011;20658;45.630;8.886;2022-09-09T05:29:53;7.97;;;4.07;;
34405;SDS011;20658;45.630;8.886;2022-09-09T05:32:29;4.25;;;3.05;;
34405;SDS011;20658;45.630;8.886;2022-09-09T05:35:06;6.07;;;2.72;;
34405;SDS011;20658;45.630;8.886;2022-09-09T05:37:39;6.45;;;2.47;;
34405;SDS011;20658;45.630;8.886;2022-09-09T05:40:13;5.50;;;2.60;;
34405;SDS011;20658;45.630;8.886;2022-09-09T05:42:47;7.85;;;2.00;;
34405;SDS011;20658;45.630;8.886;2022-09-09T05:45:16;6.45;;;2.92;;
34405;SDS011;20658;45.630;8.886;2022-09-09T05:47:51;6.82;;;2.80;;
34405;SDS011;20658;45.630;8.886;2022-09-09T05:50:23;6.50;;;2.78;;
34405;SDS011;20658;45.630;8.886;2022-09-09T05:52:57;5.72;;;2.50;;
34405;SDS011;20658;45.630;8.886;2022-09-09T05:55:30;6.32;;;3.35;;
34405;SDS011;20658;45.630;8.886;2022-09-09T05:58:04;9.35;;;3.85;;
34405;SDS011;20658;45.630;8.886;2022-09-09T06:00:37;13.48;;;2.97;;
34405;SDS011;20658;45.630;8.886;2022-09-09T06:03:05;5.95;;;3.30;;
34405;SDS011;20658;45.630;8.886;2022-09-09T06:05:40;11.65;;;3.58;;
34405;SDS011;20658;45.630;8.886;2022-09-09T06:08:08;7.72;;;2.38;;
34405;SDS011;20658;45.630;8.886;2022-09-09T06:10:37;7.85;;;2.85;;
34405;SDS011;20658;45.630;8.886;2022-09-09T06:13:11;9.50;;;3.35;;
34405;SDS011;20658;45.630;8.886;2022-09-09T06:15:39;10.10;;;4.32;;
34405;SDS011;20658;45.630;8.886;2022-09-09T06:18:23;4.88;;;2.70;;
34405;SDS011;20658;45.630;8.886;2022-09-09T06:20:59;6.20;;;2.60;;
34405;SDS011;20658;45.630;8.886;2022-09-09T06:23:35;10.13;;;3.35;;
34405;SDS011;20658;45.630;8.886;2022-09-09T06:26:09;9.20;;;2.53;;
34405;SDS011;20658;45.630;8.886;2022-09-09T06:28:46;5.53;;;2.60;;
34405;SDS011;20658;45.630;8.886;2022-09-09T06:31:21;5.38;;;2.67;;
34405;SDS011;20658;45.630;8.886;2022-09-09T06:34:00;10.38;;;3.30;;
34405;SDS011;20658;45.630;8.886;2022-09-09T06:36:38;6.53;;;2.83;;
34405;SDS011;20658;45.630;8.886;2022-09-09T06:39:12;4.68;;;2.60;;
34405;SDS011;20658;45.630;8.886;2022-09-09T06:41:42;5.03;;;2.25;;
34405;SDS011;20658;45.630;8.886;2022-09-09T06:44:41;7.25;;;2.22;;
34405;SDS011;20658;45.630;8.886;2022-09-09T06:47:15;6.45;;;2.20;;
34405;SDS011;20658;45.630;8.886;2022-09-09T06:49:45;8.45;;;2.35;;
34405;SDS011;20658;45.630;8.886;2022-09-09T06:52:14;3.08;;;1.75;;
34405;SDS011;20658;45.630;8.886;2022-09-09T06:54:49;4.28;;;1.70;;
34405;SDS011;20658;45.630;8.886;2022-09-09T06:57:23;11.00;;;2.45;;
34405;SDS011;20658;45.630;8.886;2022-09-09T06:59:51;5.43;;;1.80;;
34405;SDS011;20658;45.630;8.886;2022-09-09T07:02:25;3.60;;;1.63;;
34405;SDS011;20658;45.630;8.886;2022-09-09T07:04:59;3.28;;;1.48;;
34405;SDS011;20658;45.630;8.886;2022-09-09T07:07:34;2.78;;;1.80;;
34405;SDS011;20658;45.630;8.886;2022-09-09T07:10:10;4.82;;;1.88;;
34405;SDS011;20658;45.630;8.886;2022-09-09T07:12:44;3.88;;;2.28;;
34405;SDS011;20658;45.630;8.886;2022-09-09T07:15:24;3.92;;;1.73;;
34405;SDS011;20658;45.630;8.886;2022-09-09T07:18:00;3.28;;;1.15;;
34405;SDS011;20658;45.630;8.886;2022-09-09T07:20:34;2.33;;;1.33;;
34405;SDS011;20658;45.630;8.886;2022-09-09T07:23:09;9.73;;;1.48;;
34405;SDS011;20658;45.630;8.886;2022-09-09T07:25:44;5.28;;;1.40;;
34405;SDS011;20658;45.630;8.886;2022-09-09T07:28:18;4.05;;;1.42;;
34405;SDS011;20658;45.630;8.886;2022-09-09T07:30:54;4.53;;;1.38;;
34405;SDS011;20658;45.630;8.886;2022-09-09T07:33:28;4.35;;;1.40;;
34405;SDS011;20658;45.630;8.886;2022-09-09T07:36:04;3.40;;;1.30;;
34405;SDS011;20658;45.630;8.886;2022-09-09T07:38:40;4.35;;;1.77;;
34405;SDS011;20658;45.630;8.886;2022-09-09T07:41:17;4.57;;;2.20;;
34405;SDS011;20658;45.630;8.886;2022-09-09T07:43:50;5.78;;;1.48;;
34405;SDS011;20658;45.630;8.886;2022-09-09T07:46:25;6.05;;;1.85;;
34405;SDS011;20658;45.630;8.886;2022-09-09T07:48:55;4.32;;;1.65;;
34405;SDS011;20658;45.630;8.886;2022-09-09T07:51:33;3.92;;;1.45;;
34405;SDS011;20658;45.630;8.886;2022-09-09T07:54:05;5.10;;;1.43;;
34405;SDS011;20658;45.630;8.886;2022-09-09T07:56:43;1.67;;;0.82;;
34405;SDS011;20658;45.630;8.886;2022-09-09T07:59:17;5.45;;;1.13;;
34405;SDS011;20658;45.630;8.886;2022-09-09T08:01:53;2.75;;;1.00;;
34405;SDS011;20658;45.630;8.886;2022-09-09T08:04:28;4.90;;;1.80;;
34405;SDS011;20658;45.630;8.886;2022-09-09T08:07:02;2.65;;;1.40;;
34405;SDS011;20658;45.630;8.886;2022-09-09T08:09:44;2.67;;;1.10;;
34405;SDS011;20658;45.630;8.886;2022-09-09T08:12:22;4.00;;;1.50;;
34405;SDS011;20658;45.630;8.886;2022-09-09T08:14:56;1.98;;;1.30;;
34405;SDS011;20658;45.630;8.886;2022-09-09T08:17:32;5.82;;;1.30;;
34405;SDS011;20658;45.630;8.886;2022-09-09T08:20:07;2.22;;;1.25;;
34405;SDS011;20658;45.630;8.886;2022-09-09T08:22:42;2.97;;;1.40;;
34405;SDS011;20658;45.630;8.886;2022-09-09T08:25:16;3.42;;;1.23;;
34405;SDS011;20658;45.630;8.886;2022-09-09T08:27:52;3.97;;;1.77;;
34405;SDS011;20658;45.630;8.886;2022-09-09T08:30:26;5.18;;;1.27;;
34405;SDS011;20658;45.630;8.886;2022-09-09T08:32:59;6.00;;;2.80;;
34405;SDS011;20658;45.630;8.886;2022-09-09T08:35:27;3.38;;;1.55;;
34405;SDS011;20658;45.630;8.886;2022-09-09T08:38:04;3.10;;;1.02;;
34405;SDS011;20658;45.630;8.886;2022-09-09T08:40:40;2.60;;;1.35;;
34405;SDS011;20658;45.630;8.886;2022-09-09T08:43:15;4.22;;;1.35;;
34405;SDS011;20658;45.630;8.886;2022-09-09T08:45:55;4.32;;;1.23;;
34405;SDS011;20658;45.630;8.886;2022-09-09T08:48:41;4.40;;;1.35;;
34405;SDS011;20658;45.630;8.886;2022-09-09T08:51:24;4.75;;;1.25;;
34405;SDS011;20658;45.630;8.886;2022-09-09T08:54:01;1.90;;;1.20;;
34405;SDS011;20658;45.630;8.886;2022-09-09T08:56:37;6.10;;;1.80;;
34405;SDS011;20658;45.630;8.886;2022-09-09T08:59:11;7.45;;;2.20;;
34405;SDS011;20658;45.630;8.886;2022-09-09T09:01:54;8.23;;;3.42;;
34405;SDS011;20658;45.630;8.886;2022-09-09T09:04:38;11.77;;;4.28;;
34405;SDS011;20658;45.630;8.886;2022-09-09T09:07:37;9.13;;;3.25;;
34405;SDS011;20658;45.630;8.886;2022-09-09T09:10:33;11.13;;;2.38;;
34405;SDS011;20658;45.630;8.886;2022-09-09T09:13:20;9.07;;;4.25;;
34405;SDS011;20658;45.630;8.886;2022-09-09T09:15:58;9.70;;;3.97;;
34405;SDS011;20658;45.630;8.886;2022-09-09T09:18:38;12.32;;;4.32;;
34405;SDS011;20658;45.630;8.886;2022-09-09T09:21:08;13.27;;;4.53;;
34405;SDS011;20658;45.630;8.886;2022-09-09T09:23:51;7.40;;;3.83;;
34405;SDS011;20658;45.630;8.886;2022-09-09T09:26:32;8.95;;;3.13;;
34405;SDS011;20658;45.630;8.886;2022-09-09T09:29:10;5.63;;;3.08;;
34405;SDS011;20658;45.630;8.886;2022-09-09T09:31:47;6.97;;;3.35;;
34405;SDS011;20658;45.630;8.886;2022-09-09T09:34:26;13.13;;;6.65;;
34405;SDS011;20658;45.630;8.886;2022-09-09T09:37:00;7.47;;;3.85;;
34405;SDS011;20658;45.630;8.886;2022-09-09T09:39:34;7.03;;;3.33;;
34405;SDS011;20658;45.630;8.886;2022-09-09T09:42:07;5.68;;;2.63;;
34405;SDS011;20658;45.630;8.886;2022-09-09T09:44:48;5.88;;;3.50;;
34405;SDS011;20658;45.630;8.886;2022-09-09T09:47:22;8.30;;;3.17;;
34405;SDS011;20658;45.630;8.886;2022-09-09T09:50:16;11.27;;;3.30;;
34405;SDS011;20658;45.630;8.886;2022-09-09T09:52:55;9.02;;;3.35;;
34405;SDS011;20658;45.630;8.886;2022-09-09T09:55:28;9.43;;;3.05;;
34405;SDS011;20658;45.630;8.886;2022-09-09T09:58:05;8.85;;;3.80;;
34405;SDS011;20658;45.630;8.886;2022-09-09T10:00:48;12.43;;;4.45;;
34405;SDS011;20658;45.630;8.886;2022-09-09T10:03:26;11.23;;;3.63;;
34405;SDS011;20658;45.630;8.886;2022-09-09T10:05:57;12.70;;;4.43;;
34405;SDS011;20658;45.630;8.886;2022-09-09T10:08:33;12.13;;;5.00;;
34405;SDS011;20658;45.630;8.886;2022-09-09T10:11:17;11.63;;;3.67;;
34405;SDS011;20658;45.630;8.886;2022-09-09T10:14:01;9.65;;;4.30;;
34405;SDS011;20658;45.630;8.886;2022-09-09T10:16:55;8.68;;;3.63;;
34405;SDS011;20658;45.630;8.886;2022-09-09T10:19:45;10.20;;;4.90;;
34405;SDS011;20658;45.630;8.886;2022-09-09T10:22:33;10.60;;;4.13;;
34405;SDS011;20658;45.630;8.886;2022-09-09T10:28:17;13.80;;;4.93;;
34405;SDS011;20658;45.630;8.886;2022-09-09T10:31:10;11.15;;;4.63;;
34405;SDS011;20658;45.630;8.886;2022-09-09T10:33:57;12.82;;;4.93;;
34405;SDS011;20658;45.630;8.886;2022-09-09T10:36:36;11.70;;;4.60;;
34405;SDS011;20658;45.630;8.886;2022-09-09T10:39:21;8.07;;;3.65;;
34405;SDS011;20658;45.630;8.886;2022-09-09T10:42:07;9.45;;;3.58;;
34405;SDS011;20658;45.630;8.886;2022-09-09T10:44:50;8.52;;;3.55;;
34405;SDS011;20658;45.630;8.886;2022-09-09T10:47:42;6.90;;;3.37;;
34405;SDS011;20658;45.630;8.886;2022-09-09T10:50:29;9.27;;;3.10;;
34405;SDS011;20658;45.630;8.886;2022-09-09T10:53:21;10.70;;;3.08;;
34405;SDS011;20658;45.630;8.886;2022-09-09T10:56:09;12.50;;;5.10;;
34405;SDS011;20658;45.630;8.886;2022-09-09T10:58:43;10.05;;;5.18;;
34405;SDS011;20658;45.630;8.886;2022-09-09T11:01:18;9.15;;;4.78;;
34405;SDS011;20658;45.630;8.886;2022-09-09T11:03:57;10.48;;;5.47;;
34405;SDS011;20658;45.630;8.886;2022-09-09T11:06:39;7.07;;;3.40;;
34405;SDS011;20658;45.630;8.886;2022-09-09T11:09:18;15.02;;;4.05;;
34405;SDS011;20658;45.630;8.886;2022-09-09T11:11:57;11.05;;;3.83;;
34405;SDS011;20658;45.630;8.886;2022-09-09T11:14:32;9.60;;;4.70;;
34405;SDS011;20658;45.630;8.886;2022-09-09T11:17:08;10.68;;;4.65;;
34405;SDS011;20658;45.630;8.886;2022-09-09T11:19:46;9.43;;;4.32;;
34405;SDS011;20658;45.630;8.886;2022-09-09T11:22:17;8.98;;;3.90;;
34405;SDS011;20658;45.630;8.886;2022-09-09T11:24:57;18.00;;;5.05;;
34405;SDS011;20658;45.630;8.886;2022-09-09T11:27:30;9.23;;;3.70;;
34405;SDS011;20658;45.630;8.886;2022-09-09T11:30:17;12.38;;;4.10;;
34405;SDS011;20658;45.630;8.886;2022-09-09T11:33:01;10.52;;;3.17;;
34405;SDS011;20658;45.630;8.886;2022-09-09T11:35:58;8.93;;;3.35;;
34405;SDS011;20658;45.630;8.886;2022-09-09T11:38:52;10.52;;;3.15;;
34405;SDS011;20658;45.630;8.886;2022-09-09T11:41:32;8.45;;;3.13;;
34405;SDS011;20658;45.630;8.886;2022-09-09T11:44:09;10.38;;;3.00;;
34405;SDS011;20658;45.630;8.886;2022-09-09T11:49:25;8.65;;;3.38;;
34405;SDS011;20658;45.630;8.886;2022-09-09T11:51:57;9.40;;;2.53;;
34405;SDS011;20658;45.630;8.886;2022-09-09T11:54:28;5.93;;;2.45;;
34405;SDS011;20658;45.630;8.886;2022-09-09T11:57:04;12.18;;;2.78;;
34405;SDS011;20658;45.630;8.886;2022-09-09T11:59:54;6.40;;;1.95;;
34405;SDS011;20658;45.630;8.886;2022-09-09T12:02:23;6.60;;;2.65;;
34405;SDS011;20658;45.630;8.886;2022-09-09T12:04:55;8.05;;;2.42;;
34405;SDS011;20658;45.630;8.886;2022-09-09T12:07:33;7.72;;;2.72;;
34405;SDS011;20658;45.630;8.886;2022-09-09T12:10:19;7.22;;;2.40;;
34405;SDS011;20658;45.630;8.886;2022-09-09T12:12:53;8.90;;;3.10;;
34405;SDS011;20658;45.630;8.886;2022-09-09T12:15:25;7.72;;;2.35;;
34405;SDS011;20658;45.630;8.886;2022-09-09T12:18:00;7.75;;;2.20;;
34405;SDS011;20658;45.630;8.886;2022-09-09T12:20:34;5.85;;;2.20;;
34405;SDS011;20658;45.630;8.886;2022-09-09T12:23:19;7.35;;;3.15;;
34405;SDS011;20658;45.630;8.886;2022-09-09T12:26:08;7.00;;;2.38;;
34405;SDS011;20658;45.630;8.886;2022-09-09T12:28:54;5.25;;;2.38;;
34405;SDS011;20658;45.630;8.886;2022-09-09T12:31:39;4.28;;;1.77;;
34405;SDS011;20658;45.630;8.886;2022-09-09T12:34:14;6.55;;;2.60;;
34405;SDS011;20658;45.630;8.886;2022-09-09T12:36:53;6.15;;;2.10;;
34405;SDS011;20658;45.630;8.886;2022-09-09T12:39:32;6.55;;;2.20;;
34405;SDS011;20658;45.630;8.886;2022-09-09T12:42:14;9.23;;;2.50;;
34405;SDS011;20658;45.630;8.886;2022-09-09T12:44:50;8.85;;;2.45;;
34405;SDS011;20658;45.630;8.886;2022-09-09T12:47:30;7.10;;;2.17;;
34405;SDS011;20658;45.630;8.886;2022-09-09T12:50:15;5.13;;;1.92;;
34405;SDS011;20658;45.630;8.886;2022-09-09T12:52:52;11.00;;;2.40;;
34405;SDS011;20658;45.630;8.886;2022-09-09T12:55:31;6.05;;;2.30;;
34405;SDS011;20658;45.630;8.886;2022-09-09T12:58:12;8.05;;;2.13;;
34405;SDS011;20658;45.630;8.886;2022-09-09T13:00:49;5.50;;;2.00;;
34405;SDS011;20658;45.630;8.886;2022-09-09T13:03:24;7.10;;;2.30;;
34405;SDS011;20658;45.630;8.886;2022-09-09T13:05:58;5.97;;;2.03;;
34405;SDS011;20658;45.630;8.886;2022-09-09T13:08:43;6.28;;;1.90;;
34405;SDS011;20658;45.630;8.886;2022-09-09T13:11:17;6.20;;;2.10;;
34405;SDS011;20658;45.630;8.886;2022-09-09T13:13:56;8.85;;;2.13;;
34405;SDS011;20658;45.630;8.886;2022-09-09T13:16:31;7.18;;;2.20;;
34405;SDS011;20658;45.630;8.886;2022-09-09T13:19:07;7.82;;;1.83;;
34405;SDS011;20658;45.630;8.886;2022-09-09T13:21:42;4.68;;;2.08;;
34405;SDS011;20658;45.630;8.886;2022-09-09T13:24:24;9.23;;;2.42;;
34405;SDS011;20658;45.630;8.886;2022-09-09T13:27:01;6.63;;;2.20;;
34405;SDS011;20658;45.630;8.886;2022-09-09T13:29:38;7.63;;;2.33;;
34405;SDS011;20658;45.630;8.886;2022-09-09T13:32:15;8.63;;;2.67;;
34405;SDS011;20658;45.630;8.886;2022-09-09T13:34:50;9.15;;;2.30;;
34405;SDS011;20658;45.630;8.886;2022-09-09T13:37:26;9.38;;;2.60;;
34405;SDS011;20658;45.630;8.886;2022-09-09T13:40:06;10.18;;;2.75;;
34405;SDS011;20658;45.630;8.886;2022-09-09T13:42:54;8.70;;;2.28;;
34405;SDS011;20658;45.630;8.886;2022-09-09T13:45:30;8.80;;;2.58;;
34405;SDS011;20658;45.630;8.886;2022-09-09T13:48:09;8.55;;;2.42;;
34405;SDS011;20658;45.630;8.886;2022-09-09T13:50:52;8.02;;;2.65;;
34405;SDS011;20658;45.630;8.886;2022-09-09T13:53:31;5.32;;;1.80;;
34405;SDS011;20658;45.630;8.886;2022-09-09T13:56:04;3.97;;;2.03;;
34405;SDS011;20658;45.630;8.886;2022-09-09T13:58:38;6.72;;;2.05;;
34405;SDS011;20658;45.630;8.886;2022-09-09T14:01:13;9.85;;;2.20;;
34405;SDS011;20658;45.630;8.886;2022-09-09T14:03:46;6.10;;;2.20;;
34405;SDS011;20658;45.630;8.886;2022-09-09T14:06:19;5.90;;;2.10;;
34405;SDS011;20658;45.630;8.886;2022-09-09T14:08:54;6.80;;;2.20;;
34405;SDS011;20658;45.630;8.886;2022-09-09T14:11:27;6.50;;;1.88;;
34405;SDS011;20658;45.630;8.886;2022-09-09T14:14:01;7.00;;;1.92;;
34405;SDS011;20658;45.630;8.886;2022-09-09T14:16:35;7.25;;;1.90;;
34405;SDS011;20658;45.630;8.886;2022-09-09T14:19:08;7.57;;;2.47;;
34405;SDS011;20658;45.630;8.886;2022-09-09T14:21:42;6.97;;;2.10;;
34405;SDS011;20658;45.630;8.886;2022-09-09T14:24:15;7.35;;;1.95;;
34405;SDS011;20658;45.630;8.886;2022-09-09T14:26:48;4.00;;;2.00;;
34405;SDS011;20658;45.630;8.886;2022-09-09T14:29:22;7.35;;;2.10;;
34405;SDS011;20658;45.630;8.886;2022-09-09T14:31:58;8.93;;;2.20;;
34405;SDS011;20658;45.630;8.886;2022-09-09T14:34:32;6.70;;;1.90;;
34405;SDS011;20658;45.630;8.886;2022-09-09T14:37:06;8.80;;;1.98;;
34405;SDS011;20658;45.630;8.886;2022-09-09T14:39:39;6.75;;;2.00;;
34405;SDS011;20658;45.630;8.886;2022-09-09T14:42:15;4.50;;;1.98;;
34405;SDS011;20658;45.630;8.886;2022-09-09T14:44:48;6.20;;;2.30;;
34405;SDS011;20658;45.630;8.886;2022-09-09T14:47:23;6.05;;;2.13;;
34405;SDS011;20658;45.630;8.886;2022-09-09T14:49:57;6.57;;;2.22;;
34405;SDS011;20658;45.630;8.886;2022-09-09T14:52:32;7.43;;;2.10;;
34405;SDS011;20658;45.630;8.886;2022-09-09T14:55:06;5.60;;;1.60;;
34405;SDS011;20658;45.630;8.886;2022-09-09T14:57:40;8.25;;;2.20;;
34405;SDS011;20658;45.630;8.886;2022-09-09T15:00:14;6.50;;;3.15;;
34405;SDS011;20658;45.630;8.886;2022-09-09T15:02:49;8.27;;;2.50;;
34405;SDS011;20658;45.630;8.886;2022-09-09T15:05:25;4.18;;;1.45;;
34405;SDS011;20658;45.630;8.886;2022-09-09T15:07:59;6.35;;;2.03;;
34405;SDS011;20658;45.630;8.886;2022-09-09T15:10:32;6.35;;;1.60;;
34405;SDS011;20658;45.630;8.886;2022-09-09T15:13:05;5.35;;;1.83;;
34405;SDS011;20658;45.630;8.886;2022-09-09T15:15:39;3.08;;;1.55;;
34405;SDS011;20658;45.630;8.886;2022-09-09T15:18:14;6.03;;;1.70;;
34405;SDS011;20658;45.630;8.886;2022-09-09T15:20:44;7.93;;;2.38;;
34405;SDS011;20658;45.630;8.886;2022-09-09T15:23:17;6.63;;;2.15;;
34405;SDS011;20658;45.630;8.886;2022-09-09T15:25:51;8.48;;;1.58;;
34405;SDS011;20658;45.630;8.886;2022-09-09T15:28:25;4.65;;;1.50;;
34405;SDS011;20658;45.630;8.886;2022-09-09T15:30:59;6.32;;;2.55;;
34405;SDS011;20658;45.630;8.886;2022-09-09T15:33:40;8.35;;;1.58;;
34405;SDS011;20658;45.630;8.886;2022-09-09T15:36:15;4.25;;;1.58;;
34405;SDS011;20658;45.630;8.886;2022-09-09T15:38:50;5.13;;;1.77;;
34405;SDS011;20658;45.630;8.886;2022-09-09T15:41:24;5.80;;;1.90;;
34405;SDS011;20658;45.630;8.886;2022-09-09T15:43:59;14.10;;;2.58;;
34405;SDS011;20658;45.630;8.886;2022-09-09T15:46:34;7.43;;;2.30;;
34405;SDS011;20658;45.630;8.886;2022-09-09T15:49:11;3.65;;;1.65;;
34405;SDS011;20658;45.630;8.886;2022-09-09T15:51:47;4.88;;;1.80;;